aviador You're here:

KMYJ Decoded Metar

in
Report Time2017-03-30 18:35:00
UTC Time2017-03-30 18:34:19
Flight Rules mvfr MVFR
Wind270° at 08 kt
W.Decomp.*RWY 24: 6.9 kt HW 4.0 kt RCW
RWY 18: 8.0 kt RCW
W.Rank270° ranks 25
Current wind is above 270° avg. (7.1)
Visibility9999 m
Phenomena:N/A
Clouds:Broken 010 Hf
Broken 014 Hf
Overcast 044 Hf
Expected CloudBase > 800 ft AGL from Temp-Dew spread
Ceiling1,000 ft
Temp10°C
Dew Point08°C (88% RH)
AAT6.7°C
QNH1001 hPa
Raw Report
KMYJ 301835Z AUTO 27008KT 10SM BKN010 BKN014 OVC044 10/08 A2957
RMK AO2 LTG DSNT NE THRU SE PWINO=

Extra information for KMYJ:More info

Social comments